createdAt,value
2018-05-08T00:00:19.779Z,3.40
2018-05-08T00:01:19.959Z,3.10
2018-05-08T00:02:20.141Z,3.10
2018-05-08T00:03:20.330Z,3.40
2018-05-08T00:04:20.526Z,3.50
2018-05-08T00:05:20.716Z,3.70
2018-05-08T00:06:20.934Z,3.50
2018-05-08T00:07:21.110Z,3.50
2018-05-08T00:08:21.342Z,3.50
2018-05-08T00:09:21.487Z,2.90
2018-05-08T00:10:21.699Z,3.60
2018-05-08T00:11:21.888Z,3.10
2018-05-08T00:12:22.086Z,3.30
2018-05-08T00:13:22.280Z,3.10
2018-05-08T00:14:22.477Z,3.80
2018-05-08T00:15:22.663Z,3.40
2018-05-08T00:16:22.858Z,2.90
2018-05-08T00:17:23.061Z,3.30
2018-05-08T00:18:23.264Z,2.40
2018-05-08T00:19:23.477Z,3.30
2018-05-08T00:20:23.683Z,3.40
2018-05-08T00:21:23.920Z,3.30
2018-05-08T00:22:24.092Z,3.30
2018-05-08T00:23:24.281Z,3.10
2018-05-08T00:24:24.464Z,3.30
2018-05-08T00:25:24.654Z,3.40
2018-05-08T00:26:24.855Z,3.50
2018-05-08T00:27:25.033Z,3.60
2018-05-08T00:28:25.220Z,3.50
2018-05-08T00:29:25.403Z,3.60
2018-05-08T00:30:25.616Z,3.50
2018-05-08T00:31:25.803Z,3.60
2018-05-08T00:32:25.983Z,3.40
2018-05-08T00:33:26.185Z,3.70
2018-05-08T00:34:26.371Z,3.60
2018-05-08T00:35:26.552Z,3.90
2018-05-08T00:36:26.747Z,3.00
2018-05-08T00:37:26.944Z,3.30
2018-05-08T00:40:01.301Z,3.90
2018-05-08T00:41:01.803Z,3.40
2018-05-08T00:41:59.372Z,3.40
2018-05-08T00:42:59.584Z,3.90
2018-05-08T00:43:59.779Z,3.10
2018-05-08T00:44:59.999Z,3.10
2018-05-08T00:46:00.206Z,3.40
2018-05-08T00:47:00.419Z,3.20
2018-05-08T00:48:00.603Z,3.30
2018-05-08T00:49:00.799Z,3.20
2018-05-08T00:50:01.007Z,3.40
2018-05-08T00:51:01.189Z,3.60
2018-05-08T00:52:01.384Z,3.50
2018-05-08T00:53:01.577Z,3.50
2018-05-08T00:54:01.783Z,4.50
2018-05-08T00:55:01.991Z,3.50
2018-05-08T00:56:02.175Z,4.00
2018-05-08T00:57:02.374Z,4.90
2018-05-08T00:58:02.570Z,4.30
2018-05-08T00:59:02.783Z,4.40
2018-05-08T01:00:02.980Z,4.00
2018-05-08T01:01:03.169Z,4.10
2018-05-08T01:02:03.437Z,3.90
2018-05-08T01:03:03.591Z,3.80
2018-05-08T01:04:03.801Z,4.00
2018-05-08T01:05:04.098Z,4.00
2018-05-08T01:06:04.187Z,4.00
2018-05-08T01:07:04.398Z,4.00
2018-05-08T01:08:04.601Z,4.20
2018-05-08T01:09:04.798Z,4.10
2018-05-08T01:10:04.998Z,4.00
2018-05-08T01:11:05.194Z,4.30
2018-05-08T01:12:05.396Z,3.80
2018-05-08T01:13:05.591Z,4.20
2018-05-08T01:14:05.783Z,3.90
2018-05-08T01:15:05.972Z,3.80
2018-05-08T01:16:06.170Z,3.70
2018-05-08T01:17:06.406Z,4.00
2018-05-08T01:18:06.572Z,4.10
2018-05-08T01:19:06.798Z,4.20
2018-05-08T01:20:07.004Z,4.00
2018-05-08T01:21:07.183Z,4.50
2018-05-08T01:22:07.394Z,4.00
2018-05-08T01:24:40.735Z,3.80
2018-05-08T01:25:41.244Z,4.20
2018-05-08T01:26:39.541Z,3.80
2018-05-08T01:27:39.764Z,3.80
2018-05-08T01:28:39.928Z,4.10
2018-05-08T01:29:40.119Z,4.40
2018-05-08T01:30:40.303Z,3.90
2018-05-08T01:31:40.514Z,4.10
2018-05-08T01:32:40.714Z,4.20
2018-05-08T01:33:40.918Z,4.10
2018-05-08T01:34:41.128Z,4.30
2018-05-08T01:35:41.339Z,4.00
2018-05-08T01:36:41.546Z,4.10
2018-05-08T01:37:41.736Z,4.00
2018-05-08T01:38:41.938Z,3.90
2018-05-08T01:39:42.145Z,4.20
2018-05-08T01:42:16.486Z,4.30
2018-05-08T01:43:14.929Z,4.40
2018-05-08T01:44:15.092Z,4.30
2018-05-08T01:45:15.291Z,4.20
2018-05-08T01:46:15.489Z,4.90
2018-05-08T01:47:15.686Z,4.60
2018-05-08T01:48:15.895Z,5.10
2018-05-08T01:49:16.087Z,5.30
2018-05-08T01:50:16.277Z,4.60
2018-05-08T01:51:16.460Z,5.40
2018-05-08T01:52:16.671Z,5.20
2018-05-08T01:53:16.925Z,4.90
2018-05-08T01:54:17.010Z,5.00
2018-05-08T01:55:17.195Z,5.40
2018-05-08T01:56:17.402Z,4.80
2018-05-08T01:57:17.594Z,5.00
2018-05-08T01:58:17.777Z,4.80
2018-05-08T01:59:17.960Z,5.30
2018-05-08T02:00:18.165Z,5.50
2018-05-08T02:01:18.367Z,5.10
2018-05-08T02:02:18.581Z,5.30
2018-05-08T02:03:18.777Z,5.70
2018-05-08T02:04:18.970Z,5.20
2018-05-08T02:05:19.167Z,5.30
2018-05-08T02:06:19.372Z,5.20
2018-05-08T02:07:19.558Z,5.20
2018-05-08T02:08:19.736Z,5.00
2018-05-08T02:09:19.941Z,4.90
2018-05-08T02:10:20.132Z,4.50
2018-05-08T02:11:20.342Z,4.90
2018-05-08T02:12:20.543Z,5.50
2018-05-08T02:13:20.723Z,4.80
2018-05-08T02:14:20.967Z,4.50
2018-05-08T02:15:21.152Z,5.10
2018-05-08T02:16:21.341Z,4.40
2018-05-08T02:17:21.524Z,4.80
2018-05-08T02:18:21.709Z,5.20
2018-05-08T02:19:21.901Z,5.50
2018-05-08T02:20:22.150Z,5.70
2018-05-08T02:21:22.300Z,5.50
2018-05-08T02:22:22.505Z,6.20
2018-05-08T02:23:22.696Z,5.40
2018-05-08T02:24:22.888Z,6.30
2018-05-08T02:25:23.199Z,5.70
2018-05-08T02:26:23.270Z,5.30
2018-05-08T02:27:23.470Z,5.40
2018-05-08T02:28:23.655Z,5.40
2018-05-08T02:29:23.837Z,6.00
2018-05-08T02:30:24.045Z,6.10
2018-05-08T02:31:24.237Z,5.20
2018-05-08T02:32:24.445Z,5.90
2018-05-08T02:33:24.627Z,6.00
2018-05-08T02:34:24.843Z,5.90
2018-05-08T02:35:25.049Z,5.70
2018-05-08T02:36:25.230Z,5.50
2018-05-08T02:37:25.424Z,5.70
2018-05-08T02:38:25.607Z,5.70
2018-05-08T02:39:25.801Z,5.70
2018-05-08T02:40:25.991Z,6.00
2018-05-08T02:41:26.174Z,6.00
2018-05-08T02:42:26.382Z,5.90
2018-05-08T02:43:26.574Z,6.20
2018-05-08T02:44:26.760Z,6.00
2018-05-08T02:45:26.953Z,6.10
2018-05-08T02:46:27.141Z,5.50
2018-05-08T02:47:27.359Z,6.20
2018-05-08T02:48:27.526Z,6.40
2018-05-08T02:49:27.737Z,5.80
2018-05-08T02:50:27.939Z,6.10
2018-05-08T02:51:28.147Z,5.90
2018-05-08T02:52:28.461Z,6.20
2018-05-08T02:53:28.531Z,6.30
2018-05-08T02:54:28.724Z,6.70
2018-05-08T02:55:28.930Z,7.10
2018-05-08T02:56:29.124Z,6.50
2018-05-08T02:57:29.325Z,6.80
2018-05-08T02:58:29.515Z,7.50
2018-05-08T02:59:29.692Z,7.10
2018-05-08T03:00:29.889Z,6.80
2018-05-08T03:01:30.093Z,7.20
2018-05-08T03:02:30.302Z,6.90
2018-05-08T03:03:30.495Z,6.90
2018-05-08T03:04:30.711Z,6.70
2018-05-08T03:05:30.920Z,7.00
2018-05-08T03:06:31.170Z,7.70
2018-05-08T03:07:31.343Z,7.10
2018-05-08T03:08:31.545Z,7.30
2018-05-08T03:09:31.727Z,6.70
2018-05-08T03:10:31.929Z,7.00
2018-05-08T03:11:32.115Z,7.40
2018-05-08T03:12:32.303Z,6.90
2018-05-08T03:13:32.486Z,7.60
2018-05-08T03:14:32.685Z,7.70
2018-05-08T03:15:32.992Z,7.20
2018-05-08T03:16:33.056Z,7.20
2018-05-08T03:17:33.255Z,7.10
2018-05-08T03:18:33.441Z,7.50
2018-05-08T03:19:33.650Z,7.20
2018-05-08T03:20:33.828Z,8.10
2018-05-08T03:21:34.021Z,7.80
2018-05-08T03:22:34.203Z,7.00
2018-05-08T03:23:34.395Z,7.80
2018-05-08T03:24:34.611Z,6.70
2018-05-08T03:25:34.830Z,7.10
2018-05-08T03:26:35.039Z,7.50
2018-05-08T03:27:35.281Z,8.60
2018-05-08T03:30:09.001Z,8.60
2018-05-08T03:31:07.675Z,9.20
2018-05-08T03:32:07.855Z,8.10
2018-05-08T03:33:08.050Z,8.80
2018-05-08T03:34:08.241Z,7.20
2018-05-08T03:35:08.440Z,7.10
2018-05-08T03:36:08.621Z,7.20
2018-05-08T03:37:08.825Z,7.90
2018-05-08T03:38:09.009Z,7.40
2018-05-08T03:39:09.193Z,7.60
2018-05-08T03:40:09.379Z,7.00
2018-05-08T03:41:09.587Z,7.50
2018-05-08T03:42:09.787Z,7.10
2018-05-08T03:43:09.972Z,7.30
2018-05-08T03:44:10.159Z,7.20
2018-05-08T03:45:10.364Z,6.90
2018-05-08T03:46:10.562Z,7.30
2018-05-08T03:47:10.769Z,7.50
2018-05-08T03:48:10.974Z,8.10
2018-05-08T03:49:11.210Z,8.60
2018-05-08T03:50:11.414Z,8.30
2018-05-08T03:51:11.605Z,7.70
2018-05-08T03:52:11.802Z,7.40
2018-05-08T03:53:12.020Z,6.70
2018-05-08T03:54:12.209Z,6.80
2018-05-08T03:55:12.401Z,6.50
2018-05-08T03:56:12.591Z,7.00
2018-05-08T03:57:12.802Z,6.70
2018-05-08T03:58:13.002Z,6.20
2018-05-08T03:59:13.228Z,6.90
2018-05-08T04:00:13.439Z,7.80
2018-05-08T04:01:13.642Z,9.50
2018-05-08T04:02:13.848Z,8.70
2018-05-08T04:03:14.073Z,9.10
2018-05-08T04:04:14.244Z,8.40
2018-05-08T04:06:47.591Z,9.80
2018-05-08T04:07:46.290Z,9.50
2018-05-08T04:08:46.525Z,9.70
2018-05-08T04:09:46.675Z,7.90
2018-05-08T04:10:46.883Z,8.90
2018-05-08T04:11:47.188Z,9.30
2018-05-08T04:12:47.276Z,9.10
2018-05-08T04:13:47.420Z,9.10
2018-05-08T04:14:47.608Z,9.40
2018-05-08T04:15:47.822Z,9.30
2018-05-08T04:16:48.010Z,8.30
2018-05-08T04:17:48.245Z,8.90
2018-05-08T04:18:48.435Z,9.00
2018-05-08T04:19:48.628Z,8.60
2018-05-08T04:20:48.881Z,7.80
2018-05-08T04:21:49.072Z,8.60
2018-05-08T04:22:49.263Z,8.90
2018-05-08T04:23:49.461Z,8.70
2018-05-08T04:24:49.666Z,8.60
2018-05-08T04:25:49.865Z,9.00
2018-05-08T04:26:50.069Z,8.70
2018-05-08T04:27:50.282Z,8.90
2018-05-08T04:28:50.468Z,9.20
2018-05-08T04:29:50.663Z,9.00
2018-05-08T04:30:50.850Z,9.50
2018-05-08T04:31:51.034Z,9.30
2018-05-08T04:32:51.234Z,9.10
2018-05-08T04:33:51.440Z,8.40
2018-05-08T04:34:51.658Z,8.40
2018-05-08T04:35:51.870Z,8.40
2018-05-08T04:36:52.076Z,8.30
2018-05-08T04:37:52.263Z,7.80
2018-05-08T04:38:52.472Z,7.20
2018-05-08T04:39:52.675Z,7.50
2018-05-08T04:40:52.875Z,6.80
2018-05-08T04:41:53.079Z,7.50
2018-05-08T04:42:53.265Z,7.00
2018-05-08T04:43:53.476Z,6.90
2018-05-08T04:44:53.635Z,7.10
2018-05-08T04:45:53.835Z,6.60
2018-05-08T04:46:54.040Z,7.00
2018-05-08T04:47:54.248Z,7.80
2018-05-08T04:48:54.465Z,6.80
2018-05-08T04:49:54.667Z,6.60
2018-05-08T04:50:54.885Z,6.40
2018-05-08T04:51:55.118Z,6.80
2018-05-08T04:52:55.305Z,6.30
2018-05-08T04:53:55.405Z,6.30
2018-05-08T04:54:55.593Z,6.60
2018-05-08T04:55:55.790Z,6.40
2018-05-08T04:56:56.024Z,6.60
2018-05-08T04:57:56.181Z,6.20
2018-05-08T04:58:56.366Z,5.90
2018-05-08T04:59:56.551Z,5.80
2018-05-08T05:00:56.786Z,6.00
2018-05-08T05:01:56.972Z,5.80
2018-05-08T05:02:57.163Z,6.00
2018-05-08T05:03:57.376Z,5.70
2018-05-08T05:04:57.562Z,5.80
2018-05-08T05:05:57.758Z,6.20
2018-05-08T05:06:57.980Z,5.30
2018-05-08T05:07:58.153Z,5.90
2018-05-08T05:08:58.341Z,5.60
2018-05-08T05:09:58.531Z,5.70
2018-05-08T05:10:58.786Z,5.70
2018-05-08T05:11:58.952Z,5.40
2018-05-08T05:12:59.173Z,5.80
2018-05-08T05:13:59.346Z,5.20
2018-05-08T05:14:59.562Z,5.20
2018-05-08T05:15:59.754Z,5.70
2018-05-08T05:16:59.972Z,5.20
2018-05-08T05:18:00.169Z,5.60
2018-05-08T05:19:00.359Z,5.30
2018-05-08T05:20:00.585Z,5.40
2018-05-08T05:22:33.002Z,5.60
2018-05-08T05:23:32.793Z,5.70
2018-05-08T05:24:33.047Z,4.90
2018-05-08T05:25:33.201Z,5.00
2018-05-08T05:26:33.418Z,5.20
2018-05-08T05:27:33.626Z,5.50
2018-05-08T05:28:33.858Z,4.70
2018-05-08T05:29:34.060Z,5.10
2018-05-08T05:30:34.251Z,5.30
2018-05-08T05:31:34.505Z,5.60
2018-05-08T05:32:34.661Z,5.60
2018-05-08T05:35:06.954Z,5.50
2018-05-08T05:36:07.132Z,5.60
2018-05-08T05:37:07.360Z,5.10
2018-05-08T05:39:39.514Z,5.40
2018-05-08T05:40:39.695Z,5.30
2018-05-08T05:41:39.896Z,5.00
2018-05-08T05:42:40.175Z,5.50
2018-05-08T05:43:40.304Z,4.80
2018-05-08T05:44:40.462Z,4.80
2018-05-08T05:45:40.684Z,5.30
2018-05-08T05:46:40.881Z,5.00
2018-05-08T05:47:41.113Z,5.20
2018-05-08T05:48:41.326Z,5.20
2018-05-08T05:49:41.533Z,4.80
2018-05-08T05:50:41.727Z,5.20
2018-05-08T05:51:41.938Z,5.30
2018-05-08T05:52:42.137Z,4.60
2018-05-08T05:53:42.332Z,4.70
2018-05-08T05:54:42.523Z,5.30
2018-05-08T05:55:42.743Z,4.60
2018-05-08T05:56:42.943Z,4.80
2018-05-08T05:57:43.136Z,4.90
2018-05-08T05:58:43.363Z,4.90
2018-05-08T05:59:43.577Z,4.90
2018-05-08T06:00:43.787Z,4.90
2018-05-08T06:01:44.009Z,4.90
2018-05-08T06:02:44.228Z,4.60
2018-05-08T06:03:44.437Z,5.00
2018-05-08T06:04:44.662Z,5.10
2018-05-08T06:05:44.853Z,4.70
2018-05-08T06:06:45.052Z,4.90
2018-05-08T06:07:45.266Z,4.80
2018-05-08T06:08:45.485Z,4.40
2018-05-08T06:09:45.703Z,4.70
2018-05-08T06:10:45.920Z,4.50
2018-05-08T06:11:46.144Z,4.90
2018-05-08T06:12:46.346Z,4.70
2018-05-08T06:13:46.550Z,4.80
2018-05-08T06:14:46.743Z,4.50
2018-05-08T06:15:46.939Z,4.40
2018-05-08T06:16:47.134Z,4.00
2018-05-08T06:17:47.333Z,4.00
2018-05-08T06:18:47.548Z,4.00
2018-05-08T06:19:47.746Z,4.10
2018-05-08T06:20:47.947Z,4.10
2018-05-08T06:21:48.153Z,4.00
2018-05-08T06:22:48.348Z,4.00
2018-05-08T06:23:48.551Z,4.10
2018-05-08T06:24:48.749Z,4.40
2018-05-08T06:25:48.968Z,3.80
2018-05-08T06:26:49.191Z,3.90
2018-05-08T06:27:49.414Z,4.20
2018-05-08T06:28:49.611Z,4.00
2018-05-08T06:29:49.841Z,3.70
2018-05-08T06:30:50.057Z,3.80
2018-05-08T06:31:50.271Z,3.70
2018-05-08T06:32:50.496Z,3.50
2018-05-08T06:33:50.708Z,3.70
2018-05-08T06:34:50.896Z,3.60
2018-05-08T06:35:51.096Z,3.40
2018-05-08T06:36:51.298Z,3.50
2018-05-08T06:37:51.517Z,3.40
2018-05-08T06:38:51.734Z,3.20
2018-05-08T06:39:51.946Z,3.40
2018-05-08T06:40:52.166Z,3.40
2018-05-08T06:41:52.371Z,3.20
2018-05-08T06:42:52.577Z,3.30
2018-05-08T06:43:52.760Z,3.20
2018-05-08T06:44:52.980Z,3.40
2018-05-08T06:45:53.181Z,3.20
2018-05-08T06:46:53.393Z,3.50
2018-05-08T06:47:53.606Z,3.30
2018-05-08T06:48:53.830Z,4.20
2018-05-08T06:49:54.042Z,3.40
2018-05-08T06:50:54.235Z,3.10
2018-05-08T06:51:54.463Z,3.30
2018-05-08T06:52:54.672Z,3.00
2018-05-08T06:53:54.870Z,3.10
2018-05-08T06:54:55.097Z,3.00
2018-05-08T06:55:55.294Z,3.20
2018-05-08T06:56:55.505Z,3.10
2018-05-08T06:57:55.702Z,3.00
2018-05-08T06:58:55.930Z,3.00
2018-05-08T06:59:56.135Z,3.10
2018-05-08T07:00:56.332Z,3.20
2018-05-08T07:01:56.543Z,3.20
2018-05-08T07:02:56.753Z,3.00
2018-05-08T07:03:56.967Z,3.10
2018-05-08T07:04:57.169Z,2.90
2018-05-08T07:05:57.381Z,2.80
2018-05-08T07:06:57.605Z,2.60
2018-05-08T07:07:57.800Z,2.90
2018-05-08T07:08:58.036Z,2.90
2018-05-08T07:11:31.285Z,2.60
2018-05-08T07:12:29.969Z,2.60
2018-05-08T07:13:30.173Z,2.30
2018-05-08T07:14:30.391Z,2.60
2018-05-08T07:15:30.614Z,2.70
2018-05-08T07:16:30.837Z,2.70
2018-05-08T07:17:31.052Z,2.90
2018-05-08T07:18:31.257Z,2.60
2018-05-08T07:19:31.483Z,2.20
2018-05-08T07:20:31.705Z,2.50
2018-05-08T07:21:31.901Z,2.70
2018-05-08T07:22:32.121Z,2.50
2018-05-08T07:23:32.320Z,2.30
2018-05-08T07:24:32.516Z,2.20
2018-05-08T07:25:32.738Z,2.50
2018-05-08T07:26:32.953Z,2.40
2018-05-08T07:27:33.162Z,2.40
2018-05-08T07:28:33.374Z,2.30
2018-05-08T07:29:33.570Z,2.50
2018-05-08T07:30:33.773Z,2.20
2018-05-08T07:31:33.979Z,2.20
2018-05-08T07:32:34.204Z,2.20
2018-05-08T07:33:34.422Z,2.30
2018-05-08T07:34:34.641Z,2.10
2018-05-08T07:35:34.859Z,2.00
2018-05-08T07:36:35.074Z,2.00
2018-05-08T07:37:35.272Z,1.80
2018-05-08T07:38:35.501Z,1.90
2018-05-08T07:39:35.723Z,2.00
2018-05-08T07:40:35.916Z,1.80
2018-05-08T07:41:36.145Z,1.90
2018-05-08T07:42:36.343Z,1.80
2018-05-08T07:43:36.552Z,1.90
2018-05-08T07:44:36.768Z,2.00
2018-05-08T07:45:37.084Z,2.00
2018-05-08T07:46:37.186Z,1.80
2018-05-08T07:47:37.399Z,1.80
2018-05-08T07:48:37.619Z,1.80
2018-05-08T07:49:37.832Z,1.80
2018-05-08T07:50:38.113Z,1.90
2018-05-08T07:51:38.290Z,1.90
2018-05-08T07:52:38.459Z,2.00
2018-05-08T07:53:38.679Z,1.70
2018-05-08T07:54:38.903Z,1.80
2018-05-08T07:55:39.105Z,1.60
2018-05-08T07:56:39.314Z,1.90
2018-05-08T07:57:39.560Z,1.90
2018-05-08T07:58:39.735Z,1.60
2018-05-08T07:59:39.929Z,1.80
2018-05-08T08:00:40.134Z,1.60
2018-05-08T08:01:40.360Z,2.00
2018-05-08T08:02:40.591Z,1.90
2018-05-08T08:03:40.806Z,1.80
2018-05-08T08:04:41.004Z,1.80
2018-05-08T08:05:41.225Z,1.80
2018-05-08T08:06:41.443Z,1.50
2018-05-08T08:07:41.670Z,1.70
2018-05-08T08:08:41.887Z,1.60
2018-05-08T08:09:42.084Z,1.80
2018-05-08T08:10:42.295Z,1.40
2018-05-08T08:11:42.493Z,1.70
2018-05-08T08:12:42.696Z,1.70
2018-05-08T08:13:42.914Z,1.80
2018-05-08T08:14:43.134Z,1.50
2018-05-08T08:15:43.337Z,1.70
2018-05-08T08:16:43.535Z,1.80
2018-05-08T08:17:43.769Z,1.50
2018-05-08T08:18:43.968Z,1.60
2018-05-08T08:19:44.185Z,1.80
2018-05-08T08:20:44.403Z,1.30
2018-05-08T08:21:44.602Z,1.50
2018-05-08T08:22:44.807Z,1.70
2018-05-08T08:23:45.083Z,1.50
2018-05-08T08:24:45.263Z,1.70
2018-05-08T08:25:45.480Z,1.50
2018-05-08T08:26:45.694Z,1.60
2018-05-08T08:27:45.923Z,1.60
2018-05-08T08:28:46.129Z,1.50
2018-05-08T08:29:46.352Z,1.60
2018-05-08T08:30:46.552Z,1.50
2018-05-08T08:31:46.794Z,1.80
2018-05-08T08:32:47.018Z,1.50
2018-05-08T08:33:47.227Z,2.00
2018-05-08T08:34:47.427Z,1.90
2018-05-08T08:35:47.676Z,1.60
2018-05-08T08:36:47.864Z,1.50
2018-05-08T08:37:48.061Z,1.60
2018-05-08T08:38:48.283Z,1.70
2018-05-08T08:39:48.498Z,1.50
2018-05-08T08:40:48.808Z,1.50
2018-05-08T08:41:48.941Z,1.60
2018-05-08T08:42:49.144Z,1.70
2018-05-08T08:43:49.369Z,1.70
2018-05-08T08:44:49.591Z,1.60
2018-05-08T08:45:49.798Z,1.70
2018-05-08T08:46:50.015Z,1.60
2018-05-08T08:47:50.263Z,1.80
2018-05-08T08:48:50.436Z,1.70
2018-05-08T08:49:50.676Z,1.40
2018-05-08T08:50:50.839Z,1.60
2018-05-08T08:51:51.035Z,2.00
2018-05-08T08:52:51.243Z,1.60
2018-05-08T08:53:51.471Z,1.60
2018-05-08T08:54:51.701Z,1.40
2018-05-08T08:55:51.953Z,1.50
2018-05-08T08:56:52.137Z,1.50
2018-05-08T08:57:52.365Z,1.50
2018-05-08T08:58:52.586Z,1.60
2018-05-08T08:59:52.791Z,1.60
2018-05-08T09:00:53.000Z,1.60
2018-05-08T09:01:53.305Z,1.50
2018-05-08T09:02:53.388Z,1.70
2018-05-08T09:03:53.586Z,1.40
2018-05-08T09:04:53.809Z,1.40
2018-05-08T09:05:54.009Z,1.40
2018-05-08T09:06:54.234Z,1.50
2018-05-08T09:07:54.450Z,1.70
2018-05-08T09:08:54.654Z,1.60
2018-05-08T09:09:54.871Z,1.80
2018-05-08T09:10:55.108Z,1.50
2018-05-08T09:11:55.323Z,1.50
2018-05-08T09:12:55.523Z,1.70
2018-05-08T09:13:55.749Z,1.70
2018-05-08T09:14:55.956Z,1.70
2018-05-08T09:15:56.166Z,1.40
2018-05-08T09:16:56.377Z,1.30
2018-05-08T09:17:56.610Z,1.60
2018-05-08T09:18:56.841Z,1.60
2018-05-08T09:19:57.065Z,1.60
2018-05-08T09:20:57.261Z,1.50
2018-05-08T09:23:29.121Z,1.40
2018-05-08T09:24:29.314Z,1.50
2018-05-08T09:25:29.528Z,1.50
2018-05-08T09:26:29.736Z,1.70
2018-05-08T09:27:30.036Z,1.50
2018-05-08T09:28:30.160Z,1.70
2018-05-08T09:29:30.384Z,1.80
2018-05-08T09:30:30.594Z,1.90
2018-05-08T09:31:30.806Z,1.70
2018-05-08T09:32:31.018Z,1.50
2018-05-08T09:33:31.308Z,1.50
2018-05-08T09:34:31.386Z,1.60
2018-05-08T09:35:31.609Z,1.60
2018-05-08T09:36:31.789Z,1.70
2018-05-08T09:37:32.001Z,1.60
2018-05-08T09:38:32.238Z,1.50
2018-05-08T09:39:32.437Z,1.60
2018-05-08T09:40:32.645Z,1.40
2018-05-08T09:41:32.852Z,1.80
2018-05-08T09:42:33.068Z,1.50
2018-05-08T09:43:33.288Z,1.70
2018-05-08T09:44:33.510Z,1.70
2018-05-08T09:45:33.734Z,1.60
2018-05-08T09:46:33.958Z,1.70
2018-05-08T09:47:34.161Z,1.90
2018-05-08T09:48:34.362Z,1.50
2018-05-08T09:49:34.580Z,1.90
2018-05-08T09:50:34.808Z,1.60
2018-05-08T09:51:35.020Z,1.60
2018-05-08T09:52:35.239Z,1.50
2018-05-08T09:53:35.455Z,1.50
2018-05-08T09:54:35.686Z,1.70
2018-05-08T09:55:35.913Z,1.60
2018-05-08T09:56:36.113Z,1.50
2018-05-08T09:57:36.318Z,1.60
2018-05-08T09:58:36.518Z,1.50
2018-05-08T09:59:36.729Z,1.60
2018-05-08T10:00:36.957Z,1.70
2018-05-08T10:01:37.184Z,1.90
2018-05-08T10:02:37.391Z,1.80
2018-05-08T10:03:37.596Z,1.70
2018-05-08T10:04:37.819Z,1.70
2018-05-08T10:05:38.043Z,1.80
2018-05-08T10:06:38.340Z,1.50
2018-05-08T10:07:38.462Z,1.70
2018-05-08T10:08:38.688Z,1.60
2018-05-08T10:09:38.888Z,1.60
2018-05-08T10:10:39.082Z,1.60
2018-05-08T10:11:39.289Z,1.40
2018-05-08T10:12:39.512Z,1.50
2018-05-08T10:13:39.720Z,1.50
2018-05-08T10:14:39.947Z,1.40
2018-05-08T10:15:40.147Z,1.60
2018-05-08T10:16:40.359Z,1.70
2018-05-08T10:17:40.577Z,1.60
2018-05-08T10:18:40.775Z,1.60
2018-05-08T10:19:41.001Z,1.50
2018-05-08T10:20:41.419Z,1.60
2018-05-08T10:21:41.438Z,2.00
2018-05-08T10:22:41.661Z,1.70
2018-05-08T10:23:41.879Z,1.60
2018-05-08T10:24:42.082Z,1.90
2018-05-08T10:25:42.282Z,1.70
2018-05-08T10:26:42.504Z,2.00
2018-05-08T10:27:42.714Z,1.60
2018-05-08T10:28:42.939Z,1.70
2018-05-08T10:29:43.170Z,2.10
2018-05-08T10:30:43.492Z,2.00
2018-05-08T10:31:43.589Z,1.80
2018-05-08T10:32:43.819Z,2.00
2018-05-08T10:33:44.028Z,1.70
2018-05-08T10:34:44.215Z,1.90
2018-05-08T10:35:44.414Z,2.00
2018-05-08T10:36:44.624Z,2.00
2018-05-08T10:37:44.847Z,2.00
2018-05-08T10:38:45.055Z,1.80
2018-05-08T10:39:45.271Z,1.70
2018-05-08T10:40:45.475Z,1.80
2018-05-08T10:41:45.684Z,1.70
2018-05-08T10:42:45.948Z,1.90
2018-05-08T10:43:46.135Z,1.90
2018-05-08T10:44:46.333Z,1.80
2018-05-08T10:45:46.556Z,1.90
2018-05-08T10:46:46.771Z,1.80
2018-05-08T10:47:46.993Z,2.00
2018-05-08T10:48:47.201Z,1.80
2018-05-08T10:49:47.418Z,2.10
2018-05-08T10:50:47.618Z,1.90
2018-05-08T10:51:47.818Z,2.00
2018-05-08T10:52:48.031Z,2.00
2018-05-08T10:53:48.255Z,2.00
2018-05-08T10:54:48.477Z,1.80
2018-05-08T10:55:48.760Z,2.30
2018-05-08T10:56:48.904Z,1.90
2018-05-08T10:57:49.073Z,2.30
2018-05-08T10:58:49.302Z,2.20
2018-05-08T10:59:49.523Z,2.30
2018-05-08T11:00:49.742Z,2.30
2018-05-08T11:01:50.053Z,2.40
2018-05-08T11:02:50.189Z,2.50
2018-05-08T11:03:50.388Z,2.20
2018-05-08T11:04:50.582Z,2.20
2018-05-08T11:05:50.792Z,2.50
2018-05-08T11:06:51.012Z,2.60
2018-05-08T11:07:51.219Z,2.40
2018-05-08T11:08:51.452Z,2.40
2018-05-08T11:09:51.666Z,2.20
2018-05-08T11:10:51.871Z,2.20
2018-05-08T11:11:52.090Z,2.50
2018-05-08T11:12:52.312Z,2.60
2018-05-08T11:13:52.515Z,2.80
2018-05-08T11:14:52.729Z,2.20
2018-05-08T11:15:52.973Z,2.80
2018-05-08T11:16:53.166Z,2.30
2018-05-08T11:17:53.348Z,2.40
2018-05-08T11:18:53.552Z,2.40
2018-05-08T11:19:53.773Z,2.50
2018-05-08T11:20:53.996Z,2.80
2018-05-08T11:21:54.185Z,2.60
2018-05-08T11:22:54.384Z,2.60
2018-05-08T11:23:54.621Z,2.80
2018-05-08T11:24:54.827Z,2.40
2018-05-08T11:25:55.047Z,2.70
2018-05-08T11:26:55.261Z,2.40
2018-05-08T11:27:55.467Z,2.50
2018-05-08T11:30:27.892Z,2.70
2018-05-08T11:31:28.082Z,2.60
2018-05-08T11:32:28.272Z,2.60
2018-05-08T11:33:28.480Z,2.80
2018-05-08T11:34:28.695Z,2.60
2018-05-08T11:35:28.911Z,2.50
2018-05-08T11:36:29.100Z,2.90
2018-05-08T11:37:29.302Z,2.50
2018-05-08T11:38:29.515Z,2.40
2018-05-08T11:39:29.723Z,2.90
2018-05-08T11:40:29.937Z,2.70
2018-05-08T11:41:30.145Z,2.60
2018-05-08T11:42:30.347Z,2.80
2018-05-08T11:43:30.565Z,3.10
2018-05-08T11:44:30.804Z,2.40
2018-05-08T11:45:31.013Z,2.80
2018-05-08T11:46:31.372Z,2.30
2018-05-08T11:47:31.452Z,2.60
2018-05-08T11:48:31.669Z,2.80
2018-05-08T11:51:04.559Z,2.80
2018-05-08T11:52:04.733Z,2.80
2018-05-08T11:54:38.596Z,2.90
2018-05-08T11:55:37.023Z,2.60
2018-05-08T11:56:37.234Z,2.60
2018-05-08T11:57:37.443Z,2.70
2018-05-08T11:58:37.663Z,2.50
2018-05-08T11:59:37.867Z,2.90
2018-05-08T12:00:38.059Z,2.90
2018-05-08T12:01:38.273Z,2.90
2018-05-08T12:02:38.512Z,3.10
2018-05-08T12:03:38.664Z,2.50
2018-05-08T12:04:38.913Z,2.80
2018-05-08T12:05:39.134Z,2.90
2018-05-08T12:06:39.338Z,2.80
2018-05-08T12:07:39.554Z,2.80
2018-05-08T12:08:39.747Z,2.80
2018-05-08T12:09:39.943Z,2.70
2018-05-08T12:10:40.159Z,2.70
2018-05-08T12:11:40.365Z,3.00
2018-05-08T12:12:40.561Z,2.80
2018-05-08T12:15:12.405Z,2.80
2018-05-08T12:16:12.587Z,2.50
2018-05-08T12:17:12.809Z,2.40
2018-05-08T12:18:13.015Z,2.50
2018-05-08T12:19:13.235Z,2.40
2018-05-08T12:20:13.512Z,3.00
2018-05-08T12:21:13.593Z,2.70
2018-05-08T12:22:13.792Z,2.90
2018-05-08T12:23:14.005Z,2.80
2018-05-08T12:24:14.217Z,2.90
2018-05-08T12:25:14.406Z,2.80
2018-05-08T12:26:14.608Z,2.60
2018-05-08T12:27:14.799Z,2.60
2018-05-08T12:28:15.001Z,2.60
2018-05-08T12:29:15.184Z,2.80
2018-05-08T12:30:15.394Z,2.80
2018-05-08T12:31:15.603Z,2.50
2018-05-08T12:32:15.805Z,2.30
2018-05-08T12:33:16.013Z,2.30
2018-05-08T12:34:16.217Z,2.70
2018-05-08T12:35:16.411Z,2.50
2018-05-08T12:36:16.680Z,2.50
2018-05-08T12:37:16.821Z,2.70
2018-05-08T12:38:17.036Z,2.40
2018-05-08T12:39:17.251Z,2.70
2018-05-08T12:40:17.452Z,2.40
2018-05-08T12:41:17.649Z,2.70
2018-05-08T12:42:17.853Z,2.50
2018-05-08T12:43:18.053Z,2.80
2018-05-08T12:44:18.254Z,3.20
2018-05-08T12:45:18.467Z,2.90
2018-05-08T12:46:18.678Z,2.60
2018-05-08T12:47:18.875Z,2.90
2018-05-08T12:48:19.092Z,2.80
2018-05-08T12:49:19.320Z,2.70
2018-05-08T12:50:19.553Z,2.60
2018-05-08T12:51:19.735Z,3.10
2018-05-08T12:52:19.929Z,2.30
2018-05-08T12:53:20.127Z,2.80
2018-05-08T12:54:20.336Z,2.40
2018-05-08T12:55:20.559Z,2.40
2018-05-08T12:56:20.714Z,2.50
2018-05-08T12:57:20.916Z,2.40
2018-05-08T12:58:21.121Z,2.60
2018-05-08T12:59:21.332Z,2.80
2018-05-08T13:00:21.553Z,2.60
2018-05-08T13:01:21.773Z,2.50
2018-05-08T13:02:21.996Z,2.40
2018-05-08T13:03:22.212Z,2.60
2018-05-08T13:04:22.428Z,2.50
2018-05-08T13:05:22.724Z,2.60
2018-05-08T13:06:22.820Z,2.70
2018-05-08T13:07:23.013Z,2.40
2018-05-08T13:08:23.213Z,2.70
2018-05-08T13:09:23.415Z,2.30
2018-05-08T13:10:23.627Z,2.50
2018-05-08T13:11:23.838Z,2.30
2018-05-08T13:12:24.034Z,2.30
2018-05-08T13:13:24.238Z,2.40
2018-05-08T13:14:24.436Z,2.10
2018-05-08T13:15:24.632Z,2.50
2018-05-08T13:16:24.836Z,2.30
2018-05-08T13:17:25.048Z,2.10
2018-05-08T13:18:25.316Z,2.50
2018-05-08T13:19:25.433Z,2.50
2018-05-08T13:20:25.634Z,2.90
2018-05-08T13:21:25.833Z,2.20
2018-05-08T13:22:26.048Z,2.50
2018-05-08T13:23:26.264Z,2.60
2018-05-08T13:24:26.478Z,2.30
2018-05-08T13:25:26.745Z,2.30
2018-05-08T13:26:26.861Z,2.40
2018-05-08T13:27:27.084Z,2.60
2018-05-08T13:28:27.284Z,2.40
2018-05-08T13:29:27.504Z,2.30
2018-05-08T13:30:27.694Z,2.40
2018-05-08T13:31:27.886Z,2.30
2018-05-08T13:32:28.077Z,2.20
2018-05-08T13:33:28.279Z,2.40
2018-05-08T13:34:28.494Z,2.40
2018-05-08T13:35:28.722Z,2.20
2018-05-08T13:36:28.919Z,2.30
2018-05-08T13:37:29.119Z,2.30
2018-05-08T13:38:29.396Z,2.20
2018-05-08T13:39:29.475Z,2.40
2018-05-08T13:40:29.690Z,2.20
2018-05-08T13:41:29.913Z,2.40
2018-05-08T13:42:30.104Z,2.40